Time;durP1;ratioP1;P1;durP2;ratioP2;P2;SDS_P1;SDS_P2;PMS_P1;PMS_P2;Temp;Humidity;BMP_temperature;BMP_pressure;BME280_temperature;BME280_humidity;BME280_pressure;Samples;Min_cycle;Max_cycle;Signal;HPM_P1;HPM_P2
2021/04/12 00:02:29;;;;;;;2.20;2.00;;;;;;;3.69;84.52;99158.41;5095690;28;20142;-84
2021/04/12 00:05:06;;;;;;;1.45;1.35;;;;;;;3.60;84.16;99154.72;5085052;28;20059;-84
2021/04/12 00:07:38;;;;;;;1.92;1.73;;;;;;;3.42;84.99;99142.94;5095726;28;20051;-85
2021/04/12 00:10:14;;;;;;;1.92;1.83;;;;;;;3.50;84.89;99156.53;5088418;28;20056;-84
2021/04/12 00:12:47;;;;;;;1.35;1.23;;;;;;;3.38;84.60;99160.34;5081197;28;20071;-88
2021/04/12 00:15:22;;;;;;;2.60;2.30;;;;;;;3.31;86.58;99142.09;5081320;28;20056;-84
2021/04/12 00:17:53;;;;;;;3.13;2.72;;;;;;;3.50;86.36;99159.22;5081632;28;20093;-84
2021/04/12 00:20:27;;;;;;;2.45;2.25;;;;;;;3.24;85.25;99149.00;5094496;28;20047;-85
2021/04/12 00:36:26;;;;;;;2.92;2.58;;;;;;;3.26;85.55;99181.94;5076787;28;20063;-85
2021/04/12 00:39:00;;;;;;;3.80;3.10;;;;;;;3.34;84.97;99178.56;5080962;28;20049;-84
2021/04/12 00:42:03;;;;;;;4.97;3.03;;;;;;;3.19;84.47;99170.91;5074126;28;20060;-83
2021/04/12 00:44:51;;;;;;;4.72;3.38;;;;;;;3.08;85.03;99175.53;5036298;28;20056;-81
2021/04/12 00:47:31;;;;;;;3.85;3.53;;;;;;;2.97;85.47;99190.78;5091317;28;20051;-85
2021/04/12 00:50:17;;;;;;;5.60;3.53;;;;;;;2.96;84.66;99202.50;5094711;28;20048;-85
2021/04/12 00:53:14;;;;;;;4.38;3.78;;;;;;;2.86;85.41;99200.75;5088594;28;20056;-86
2021/04/12 00:55:44;;;;;;;5.18;4.28;;;;;;;2.95;85.39;99211.56;5085793;28;20044;-86
2021/04/12 00:58:20;;;;;;;4.85;3.95;;;;;;;2.95;86.52;99235.72;5074449;28;20072;-85
2021/04/12 01:00:55;;;;;;;4.40;3.22;;;;;;;2.81;85.08;99239.59;5074673;28;20110;-87
2021/04/12 01:03:38;;;;;;;4.65;3.85;;;;;;;2.96;85.48;99253.50;5076352;28;20550;-84
2021/04/12 01:06:12;;;;;;;6.25;4.28;;;;;;;2.91;85.87;99258.44;5092044;28;20416;-86
2021/04/12 01:09:15;;;;;;;3.88;3.38;;;;;;;2.93;85.11;99277.94;5094419;28;20048;-83
2021/04/12 01:12:00;;;;;;;6.95;4.65;;;;;;;2.91;85.82;99285.31;5073437;28;20049;-87
2021/04/12 01:14:51;;;;;;;3.00;2.65;;;;;;;2.79;85.51;99286.38;5075410;28;20457;-85
2021/04/12 01:17:37;;;;;;;4.45;3.60;;;;;;;2.88;86.65;99298.16;5083254;28;20048;-87
2021/04/12 01:34:07;;;;;;;4.03;3.00;;;;;;;2.75;85.34;99307.25;5073997;28;20042;-86
2021/04/12 01:36:43;;;;;;;9.15;3.15;;;;;;;2.62;84.85;99280.63;5073866;28;20413;-86
2021/04/12 01:39:21;;;;;;;7.05;4.32;;;;;;;2.75;84.77;99306.41;5073694;28;20063;-80
2021/04/12 01:42:01;;;;;;;5.55;4.53;;;;;;;2.62;85.29;99288.66;5073707;28;20056;-85
2021/04/12 01:44:41;;;;;;;6.70;5.20;;;;;;;2.58;84.31;99286.38;5078715;28;20404;-84
2021/04/12 01:47:35;;;;;;;6.28;4.55;;;;;;;2.57;86.11;99301.63;5093468;28;20051;-84
2021/04/12 01:50:19;;;;;;;6.72;4.30;;;;;;;2.61;86.17;99334.44;5094049;28;20056;-85
2021/04/12 01:53:07;;;;;;;6.13;4.40;;;;;;;2.45;86.59;99302.66;5094001;28;20408;-85
2021/04/12 01:55:45;;;;;;;5.20;3.97;;;;;;;2.56;86.69;99318.72;5079496;28;20052;-85
2021/04/12 01:58:26;;;;;;;6.75;4.57;;;;;;;2.51;86.05;99310.19;5076442;28;20044;-85
2021/04/12 02:01:11;;;;;;;5.05;3.30;;;;;;;2.51;85.75;99323.59;5076008;28;20061;-85
2021/04/12 02:03:53;;;;;;;6.07;4.00;;;;;;;2.51;85.82;99312.88;5073396;28;20056;-86
2021/04/12 02:06:43;;;;;;;6.03;4.40;;;;;;;2.52;86.32;99322.63;5079420;28;20081;-85
2021/04/12 02:09:27;;;;;;;;;;;;;;;2.58;84.94;99340.06;5073725;28;20504;-86
2021/04/12 02:12:04;;;;;;;5.68;4.20;;;;;;;2.47;86.20;99340.97;5088321;28;20398;-86
2021/04/12 02:15:00;;;;;;;3.67;2.90;;;;;;;2.48;85.20;99356.06;5091469;28;20052;-86
2021/04/12 02:17:45;;;;;;;4.88;4.00;;;;;;;2.45;85.34;99362.56;5093128;28;20135;-86
2021/04/12 02:20:18;;;;;;;7.23;4.23;;;;;;;2.41;86.18;99361.13;5073096;28;20057;-86
2021/04/12 02:23:07;;;;;;;5.47;4.23;;;;;;;2.35;84.89;99364.31;5087741;28;20052;-86
2021/04/12 02:26:17;;;;;;;6.63;4.40;;;;;;;2.48;85.85;99389.16;5092430;28;20546;-86
2021/04/12 02:29:07;;;;;;;10.02;4.97;;;;;;;2.58;85.18;99393.75;5010585;28;20510;-87
2021/04/12 02:31:47;;;;;;;5.15;4.15;;;;;;;2.66;84.43;99399.31;5011443;28;20096;-87
2021/04/12 02:34:28;;;;;;;8.15;4.07;;;;;;;2.63;86.19;99403.13;5089613;28;20500;-87
2021/04/12 02:37:16;;;;;;;4.77;3.83;;;;;;;2.47;84.66;99371.31;5090757;28;20052;-86
2021/04/12 02:39:53;;;;;;;6.53;4.70;;;;;;;2.54;85.45;99374.34;5077422;28;20469;-87
2021/04/12 02:42:34;;;;;;;6.47;4.20;;;;;;;2.55;86.63;99386.78;5077001;28;20045;-85
2021/04/12 02:45:20;;;;;;;5.88;4.35;;;;;;;2.62;85.38;99401.41;5082316;28;20044;-86
2021/04/12 02:48:17;;;;;;;5.57;4.07;;;;;;;2.63;84.83;99402.25;5082342;28;20063;-87
2021/04/12 02:51:18;;;;;;;5.40;4.10;;;;;;;2.56;85.19;99403.72;5078689;28;20048;-86
2021/04/12 02:54:11;;;;;;;10.77;5.20;;;;;;;2.61;84.80;99404.22;5078079;28;20507;-86
2021/04/12 02:57:16;;;;;;;6.53;4.80;;;;;;;2.54;85.42;99400.34;5096877;28;20495;-86
2021/04/12 03:00:16;;;;;;;7.15;5.25;;;;;;;2.52;85.18;99400.47;5070845;28;20070;-85
2021/04/12 03:03:23;;;;;;;7.10;4.75;;;;;;;2.45;85.90;99402.81;5083347;28;20067;-85
2021/04/12 03:06:22;;;;;;;9.65;5.50;;;;;;;2.64;85.73;99428.13;5076046;28;20063;-86
2021/04/12 03:09:04;;;;;;;6.75;5.07;;;;;;;2.59;85.56;99433.00;5070941;28;20060;-85
2021/04/12 03:11:57;;;;;;;7.20;5.63;;;;;;;2.56;86.17;99427.88;5077290;28;20057;-87
2021/04/12 03:14:53;;;;;;;5.75;4.25;;;;;;;2.61;86.73;99426.53;5084150;28;20484;-87
2021/04/12 03:17:52;;;;;;;4.53;3.67;;;;;;;2.46;85.88;99434.03;5077134;28;20049;-86
2021/04/12 03:20:43;;;;;;;5.72;4.05;;;;;;;2.37;86.38;99431.25;5065023;28;20055;-86
2021/04/12 03:23:27;;;;;;;5.95;4.75;;;;;;;2.26;85.66;99422.25;5076082;28;20045;-86
2021/04/12 03:26:05;;;;;;;7.95;4.88;;;;;;;2.32;85.87;99428.09;5075606;28;20080;-86
2021/04/12 03:28:47;;;;;;;5.93;3.93;;;;;;;2.26;86.25;99434.81;5077044;28;20049;-86
2021/04/12 03:31:35;;;;;;;9.88;5.88;;;;;;;2.33;86.23;99453.94;5091764;28;20048;-87
2021/04/12 03:34:23;;;;;;;7.55;4.30;;;;;;;2.46;85.71;99451.97;5083167;28;20107;-86
2021/04/12 03:37:12;;;;;;;11.00;5.23;;;;;;;2.39;86.49;99473.06;5089190;28;20052;-87
2021/04/12 03:39:47;;;;;;;7.60;4.95;;;;;;;2.21;86.15;99447.75;5083830;28;20522;-84
2021/04/12 03:42:50;;;;;;;11.50;5.40;;;;;;;2.43;86.24;99482.59;5092395;28;20040;-85
2021/04/12 03:45:48;;;;;;;9.25;4.82;;;;;;;2.39;85.94;99465.00;5077552;28;20048;-85
2021/04/12 03:48:41;;;;;;;6.05;4.75;;;;;;;2.34;85.74;99459.19;5091371;28;20056;-86
2021/04/12 03:51:47;;;;;;;4.80;4.10;;;;;;;2.24;86.48;99458.22;5076418;28;20052;-86
2021/04/12 03:54:41;;;;;;;6.43;4.60;;;;;;;2.39;86.76;99478.44;5045517;28;20057;-84
2021/04/12 03:57:41;;;;;;;7.07;4.50;;;;;;;2.25;85.66;99473.34;5078814;28;20139;-86
2021/04/12 04:00:23;;;;;;;9.82;4.72;;;;;;;2.14;86.07;99463.50;5058693;28;20049;-85
2021/04/12 04:03:07;;;;;;;5.97;4.40;;;;;;;2.22;85.59;99490.53;5094111;28;20075;-82
2021/04/12 04:05:56;;;;;;;11.07;5.50;;;;;;;2.25;86.70;99484.94;5091177;28;20052;-85
2021/04/12 04:08:54;;;;;;;7.20;5.23;;;;;;;2.11;86.04;99469.09;5096338;28;20403;-86
2021/04/12 04:11:49;;;;;;;8.65;5.00;;;;;;;2.19;86.60;99498.84;5094473;28;20052;-84
2021/04/12 04:14:43;;;;;;;6.13;5.10;;;;;;;2.25;86.68;99517.13;5095334;28;20407;-82
2021/04/12 04:17:25;;;;;;;6.47;4.73;;;;;;;2.03;85.91;99496.53;5081029;28;20044;-89
2021/04/12 04:20:11;;;;;;;6.00;3.63;;;;;;;2.00;86.28;99518.22;5075645;28;20048;-86
2021/04/12 05:10:45;;;;;;;8.93;6.27;;;;;;;2.27;86.31;99619.81;5080043;28;20085;-82
2021/04/12 05:13:40;;;;;;;7.93;5.87;;;;;;;2.24;86.08;99621.88;5111829;28;20511;-82
2021/04/12 05:16:40;;;;;;;6.37;4.63;;;;;;;2.17;85.50;99629.56;5111933;28;20109;-82
2021/04/12 05:19:37;;;;;;;6.85;4.68;;;;;;;2.09;85.84;99622.13;5113691;28;20059;-83
2021/04/12 05:22:30;;;;;;;32.37;16.97;;;;;;;2.29;85.65;99654.56;5114076;28;20102;-82
2021/04/12 05:25:20;;;;;;;15.52;7.82;;;;;;;2.26;85.71;99644.94;5113427;28;20067;-84
2021/04/12 05:28:25;;;;;;;24.77;12.48;;;;;;;2.25;86.30;99635.16;5113908;28;20055;-83
2021/04/12 05:31:25;;;;;;;23.83;12.90;;;;;;;2.07;85.80;99623.19;5020136;28;20111;-83
2021/04/12 05:34:52;;;;;;;10.77;5.50;;;;;;;2.07;85.98;99640.13;5093776;28;20048;-82
2021/04/12 05:37:45;;;;;;;15.83;9.37;;;;;;;2.10;85.88;99655.16;5103054;28;20406;-83
2021/04/12 05:40:30;;;;;;;8.10;4.57;;;;;;;2.08;85.90;99660.63;5114233;28;20051;-84
2021/04/12 05:43:22;;;;;;;8.33;6.13;;;;;;;2.22;86.10;99656.03;5108010;28;20101;-83
2021/04/12 05:46:31;;;;;;;;;;;;;;;;;;;;;
2021/04/12 05:49:21;;;;;;;9.75;5.95;;;;;;;2.04;86.53;99669.03;5036094;28;20048;-84
2021/04/12 05:52:16;;;;;;;10.23;6.32;;;;;;;2.08;86.13;99683.91;5100059;28;20078;-84
2021/04/12 05:55:12;;;;;;;58.03;27.73;;;;;;;2.17;86.02;99664.44;5082457;28;20415;-84
2021/04/12 05:57:55;;;;;;;62.28;27.00;;;;;;;2.29;85.78;99662.63;5113073;28;20044;-81
2021/04/12 06:00:30;;;;;;;10.00;6.70;;;;;;;2.35;86.01;99666.63;5111928;28;20131;-82
2021/04/12 06:03:10;;;;;;;26.07;15.03;;;;;;;2.29;85.25;99650.06;5106885;28;20079;-83
2021/04/12 06:05:46;;;;;;;11.05;7.10;;;;;;;2.30;85.41;99685.78;5112941;28;20394;-82
2021/04/12 06:15:55;;;;;;;;;;;;;;;2.66;84.80;99705.34;5091822;28;20134;-83
2021/04/12 06:22:38;;;;;;;12.30;7.60;;;;;;;2.90;85.94;99717.81;5109479;28;20055;-83
2021/04/12 06:38:39;;;;;;;11.13;6.97;;;;;;;3.21;85.08;99740.38;5001122;28;20116;-82
2021/04/12 06:41:38;;;;;;;8.80;5.70;;;;;;;3.10;84.74;99740.38;5101187;28;20381;-82
2021/04/12 06:44:55;;;;;;;13.48;8.63;;;;;;;3.34;84.25;99729.47;5108058;28;20051;-82
2021/04/12 08:30:48;;;;;;;14.35;8.20;;;;;;;4.15;79.47;99859.13;5054724;28;20312;-79
2021/04/12 08:34:06;;;;;;;15.02;9.82;;;;;;;4.47;77.78;99881.66;5079362;28;20469;-80
2021/04/12 08:37:14;;;;;;;20.42;11.30;;;;;;;4.51;76.43;99883.13;5070028;28;20425;-81
2021/04/12 08:40:32;;;;;;;17.88;10.80;;;;;;;4.69;76.88;99878.03;5089842;28;20265;-79
2021/04/12 08:43:14;;;;;;;17.35;11.20;;;;;;;4.64;77.17;99870.34;5071518;28;20044;-79
2021/04/12 08:46:20;;;;;;;17.48;9.35;;;;;;;4.74;75.69;99879.38;5073224;28;20056;-80
2021/04/12 08:53:02;;;;;;;17.85;9.60;;;;;;;4.73;75.35;99885.72;5078234;28;20075;-80
2021/04/12 08:56:16;;;;;;;13.40;9.38;;;;;;;4.87;76.36;99870.22;5076733;28;20067;-80
2021/04/12 08:59:34;;;;;;;15.63;9.23;;;;;;;4.89;75.80;99896.06;5071018;28;20052;-80
2021/04/12 09:02:45;;;;;;;13.90;9.18;;;;;;;4.85;74.02;99891.91;5055213;28;20049;-80
2021/04/12 09:12:47;;;;;;;13.00;8.15;;;;;;;4.67;73.79;99872.78;4955141;28;20143;-80
2021/04/12 09:15:49;;;;;;;13.32;8.30;;;;;;;5.14;73.38;99904.75;5014422;28;20047;-80
2021/04/12 09:18:54;;;;;;;13.23;7.75;;;;;;;5.10;70.83;99925.72;5070817;28;20044;-80
2021/04/12 09:21:58;;;;;;;16.73;7.50;;;;;;;4.90;72.68;99905.84;5073274;28;20098;-80
2021/04/12 09:25:23;;;;;;;9.85;5.75;;;;;;;4.91;68.05;99912.94;5083836;28;20049;-80
2021/04/12 09:28:20;;;;;;;11.38;7.13;;;;;;;4.83;70.84;99909.19;5020002;28;20135;-80
2021/04/12 09:31:30;;;;;;;11.93;5.00;;;;;;;4.90;69.89;99916.63;5073460;28;20371;-80
2021/04/12 09:34:29;;;;;;;6.70;5.30;;;;;;;5.16;67.71;99923.47;4963322;28;20054;-80
2021/04/12 09:37:55;;;;;;;7.28;4.80;;;;;;;5.18;65.33;99926.88;5015289;28;20059;-80
2021/04/12 09:41:07;;;;;;;8.65;5.13;;;;;;;5.29;66.22;99933.06;5079298;28;20049;-80
2021/04/12 09:44:21;;;;;;;6.70;3.85;;;;;;;5.56;65.18;99933.53;4988633;28;20471;-80
2021/04/12 09:47:20;;;;;;;10.23;5.65;;;;;;;5.96;67.21;99927.28;4996490;28;20232;-80
2021/04/12 09:50:27;;;;;;;6.65;5.10;;;;;;;5.91;64.70;99943.88;5078140;28;20048;-80
2021/04/12 09:53:24;;;;;;;8.82;5.35;;;;;;;5.94;64.66;99938.22;5005193;28;20050;-80
2021/04/12 10:00:11;;;;;;;8.38;4.22;;;;;;;5.74;61.81;99952.63;5041199;28;20056;-81
2021/04/12 10:06:50;;;;;;;5.22;3.83;;;;;;;5.97;58.60;99942.53;5050552;28;20129;-80
2021/04/12 10:16:19;;;;;;;6.32;3.85;;;;;;;5.90;59.83;99963.78;5060032;28;20058;-80
2021/04/12 10:19:02;;;;;;;7.30;4.07;;;;;;;5.68;59.42;99967.50;5065360;28;20044;-80
2021/04/12 10:21:35;;;;;;;3.45;2.72;;;;;;;5.64;58.30;99961.50;5070214;28;20080;-80
2021/04/12 10:24:12;;;;;;;8.95;3.50;;;;;;;6.05;56.81;99972.38;5099524;28;20519;-80
2021/04/12 10:26:44;;;;;;;4.63;3.08;;;;;;;6.08;57.69;99960.47;5089737;28;20122;-81
2021/04/12 10:29:16;;;;;;;8.70;3.78;;;;;;;5.89;57.33;99961.22;5092320;28;20051;-81
2021/04/12 10:31:52;;;;;;;8.93;3.72;;;;;;;5.90;58.45;99966.50;5090706;28;20052;-80
2021/04/12 10:34:26;;;;;;;4.80;2.67;;;;;;;5.68;56.38;99965.66;5104486;28;20130;-80
2021/04/12 10:37:05;;;;;;;8.02;3.28;;;;;;;5.54;59.04;99960.63;5090301;28;20097;-80
2021/04/12 10:39:42;;;;;;;8.50;3.60;;;;;;;5.88;58.04;99959.50;5090437;28;20484;-80
2021/04/12 10:42:21;;;;;;;3.60;2.42;;;;;;;5.81;56.10;99956.47;5096197;28;20500;-81
2021/04/12 10:44:58;;;;;;;7.65;2.17;;;;;;;5.67;54.54;99961.28;5090774;28;20129;-82
2021/04/12 10:47:31;;;;;;;8.60;2.33;;;;;;;5.94;54.08;99962.50;5090256;28;20149;-81
2021/04/12 10:50:09;;;;;;;3.58;2.30;;;;;;;6.20;51.91;99957.53;5089828;28;20052;-80
2021/04/12 10:55:54;;;;;;;2.28;1.85;;;;;;;6.59;49.27;99943.25;5099153;28;20047;-80
2021/04/12 10:58:32;;;;;;;1.98;1.80;;;;;;;6.51;51.43;99949.34;5108022;28;20043;-80
2021/04/12 11:01:07;;;;;;;4.50;1.83;;;;;;;6.71;50.17;99969.19;5096236;28;20088;-80
2021/04/12 11:03:45;;;;;;;5.75;2.00;;;;;;;6.76;49.94;99978.69;5106941;28;20472;-80
2021/04/12 11:06:34;;;;;;;2.38;1.73;;;;;;;6.61;51.53;99964.72;5095762;28;20040;-81
2021/04/12 11:09:14;;;;;;;2.20;2.00;;;;;;;6.65;49.75;99956.19;5097540;28;20131;-80
2021/04/12 11:11:53;;;;;;;3.83;2.15;;;;;;;6.55;50.87;99956.19;5092448;28;20492;-80
2021/04/12 11:14:27;;;;;;;4.57;2.28;;;;;;;6.70;51.22;99951.25;5091821;28;20048;-80
2021/04/12 11:17:01;;;;;;;6.72;2.35;;;;;;;6.99;50.14;99952.25;5093304;28;20528;-80
2021/04/12 11:19:40;;;;;;;5.18;1.70;;;;;;;6.88;48.90;99954.09;5096037;28;20040;-81
2021/04/12 11:22:24;;;;;;;4.93;2.03;;;;;;;7.00;48.98;99972.88;5096626;28;20040;-80
2021/04/12 11:25:00;;;;;;;3.40;1.70;;;;;;;7.16;47.85;99969.59;5093178;28;20062;-80
2021/04/12 11:28:01;;;;;;;4.15;1.75;;;;;;;7.18;49.33;99970.31;5093560;28;20064;-81
2021/04/12 11:30:34;;;;;;;2.20;1.90;;;;;;;7.00;46.97;99965.63;5102178;28;20389;-81
2021/04/12 11:33:22;;;;;;;4.80;2.05;;;;;;;6.98;47.06;99964.06;5097130;28;20509;-81
2021/04/12 11:36:13;;;;;;;5.65;1.80;;;;;;;6.65;48.00;99961.59;5101040;28;20055;-81
2021/04/12 11:38:47;;;;;;;1.88;1.50;;;;;;;6.58;47.82;99954.19;5092533;28;20040;-81
2021/04/12 11:41:20;;;;;;;3.83;1.55;;;;;;;6.67;47.98;99966.84;5094339;28;20055;-80
2021/04/12 11:43:52;;;;;;;3.05;1.20;;;;;;;6.87;49.59;99979.41;5112585;28;20270;-80
2021/04/12 11:46:38;;;;;;;8.43;1.67;;;;;;;7.44;47.17;99963.31;5095269;28;20090;-80
2021/04/12 11:49:16;;;;;;;2.17;1.60;;;;;;;7.32;45.99;99959.06;5091948;28;20040;-79
2021/04/12 11:51:55;;;;;;;3.40;1.83;;;;;;;7.34;46.28;99967.03;5101097;28;20051;-80
2021/04/12 11:54:32;;;;;;;4.30;2.13;;;;;;;7.29;48.93;99974.69;5100487;28;20112;-80
2021/04/12 11:57:04;;;;;;;5.03;2.15;;;;;;;7.19;47.91;99972.03;5101128;28;20079;-80
2021/04/12 11:59:47;;;;;;;1.65;1.55;;;;;;;7.12;47.55;99965.47;5097692;28;20048;-80
2021/04/12 12:02:24;;;;;;;2.63;1.95;;;;;;;7.14;48.95;99960.78;5097203;28;20404;-80
2021/04/12 12:04:55;;;;;;;3.47;2.30;;;;;;;6.92;48.43;99978.97;5105245;28;20093;-79
2021/04/12 12:07:34;;;;;;;4.90;2.10;;;;;;;6.84;49.01;99974.28;5101509;28;20101;-80
2021/04/12 12:10:41;;;;;;;4.82;2.00;;;;;;;6.83;51.71;99986.09;5104156;28;20066;-79
2021/04/12 12:13:23;;;;;;;7.20;4.03;;;;;;;6.94;50.28;99971.59;5104051;28;20405;-80
2021/04/12 12:16:13;;;;;;;3.65;2.42;;;;;;;7.12;50.24;99987.97;5101201;28;20105;-80
2021/04/12 12:22:49;;;;;;;2.42;1.90;;;;;;;7.79;45.73;99967.19;5012328;28;20038;-80
2021/04/12 12:25:27;;;;;;;3.70;1.92;;;;;;;8.01;46.17;99973.25;5025661;28;20057;-79
2021/04/12 12:28:04;;;;;;;5.82;2.10;;;;;;;8.18;47.25;99949.94;5052907;28;20048;-79
2021/04/12 12:30:36;;;;;;;2.63;2.10;;;;;;;7.88;45.67;99967.31;5083722;28;20135;-80
2021/04/12 12:33:12;;;;;;;2.90;1.50;;;;;;;7.80;42.17;99955.38;5070815;28;20539;-80
2021/04/12 12:35:53;;;;;;;2.53;1.80;;;;;;;8.32;40.40;99979.25;5079603;28;20078;-80
2021/04/12 12:39:02;;;;;;;1.83;1.35;;;;;;;8.22;39.35;99966.75;5078185;28;20105;-82
2021/04/12 12:41:57;;;;;;;3.00;1.60;;;;;;;9.09;39.00;99970.75;5016230;28;20100;-80
2021/04/12 12:44:29;;;;;;;1.70;1.40;;;;;;;9.38;37.11;99937.09;5025526;28;20307;-81
2021/04/12 12:47:05;;;;;;;9.20;1.60;;;;;;;9.26;39.02;99960.06;5053715;28;20504;-81
2021/04/12 12:49:43;;;;;;;4.18;1.48;;;;;;;8.77;39.08;99960.47;5071007;28;20040;-81
2021/04/12 12:52:21;;;;;;;3.85;1.80;;;;;;;8.11;40.16;99963.25;5071727;28;20040;-80
2021/04/12 12:55:35;;;;;;;4.90;1.40;;;;;;;7.89;41.61;99963.59;5086224;28;20412;-80
2021/04/12 12:58:22;;;;;;;3.63;1.67;;;;;;;7.83;42.79;99980.44;5080503;28;20121;-81
2021/04/12 13:00:51;;;;;;;3.55;2.17;;;;;;;7.66;44.65;99966.66;5080969;28;20565;-80
2021/04/12 13:03:21;;;;;;;2.10;1.77;;;;;;;7.70;45.70;99976.19;5076033;28;20060;-80
2021/04/12 13:05:50;;;;;;;5.07;1.70;;;;;;;7.87;46.54;99980.00;5080800;28;20048;-81
2021/04/12 13:08:22;;;;;;;4.75;2.58;;;;;;;7.88;44.94;99973.59;5082225;28;20043;-81
2021/04/12 13:10:50;;;;;;;2.88;1.27;;;;;;;7.57;43.91;99981.06;5085751;28;20055;-81
2021/04/12 13:13:34;;;;;;;5.07;1.92;;;;;;;7.59;43.36;99984.50;5069940;28;20493;-81
2021/04/12 13:16:37;;;;;;;6.68;1.75;;;;;;;7.61;43.75;99985.19;5082925;28;20396;-81
2021/04/12 13:19:06;;;;;;;3.05;2.13;;;;;;;7.84;44.49;99971.31;5071055;28;20484;-80
2021/04/12 13:21:51;;;;;;;2.08;1.80;;;;;;;8.46;42.71;99974.34;5076397;28;20040;-81
2021/04/12 13:24:38;;;;;;;3.95;1.77;;;;;;;8.62;41.56;99955.56;5089821;28;20079;-81
2021/04/12 13:30:13;;;;;;;2.38;1.90;;;;;;;9.55;41.38;99951.63;5091818;28;20055;-80
2021/04/12 13:32:50;;;;;;;3.65;1.83;;;;;;;9.18;40.68;99964.44;5106559;28;20197;-80
2021/04/12 13:35:22;;;;;;;2.03;1.33;;;;;;;8.61;38.92;99966.56;5113401;28;20381;-80
2021/04/12 13:38:05;;;;;;;3.15;1.55;;;;;;;8.80;38.93;99977.25;5102214;28;20116;-80
2021/04/12 13:40:40;;;;;;;1.65;1.38;;;;;;;8.42;39.64;99971.06;5091664;28;20051;-81
2021/04/12 13:43:19;;;;;;;3.63;1.63;;;;;;;8.28;40.14;99980.56;5103178;28;20496;-80
2021/04/12 13:45:48;;;;;;;4.70;2.13;;;;;;;8.15;40.99;99996.28;5091957;28;20082;-82
2021/04/12 13:48:24;;;;;;;6.72;2.47;;;;;;;7.82;40.86;99985.00;5094780;28;20048;-80
2021/04/12 13:50:58;;;;;;;1.50;1.40;;;;;;;7.79;38.76;99980.72;5090715;28;20052;-80
2021/04/12 13:53:31;;;;;;;3.97;1.70;;;;;;;7.63;40.03;99988.59;5086288;28;20478;-80
2021/04/12 13:56:11;;;;;;;3.85;1.63;;;;;;;7.67;40.85;99992.72;5096844;28;20138;-80
2021/04/12 14:01:43;;;;;;;2.83;1.38;;;;;;;7.65;40.66;99983.03;5092987;28;20040;-80
2021/04/12 14:04:20;;;;;;;5.00;1.90;;;;;;;8.29;41.27;99976.81;5092004;28;20047;-80
2021/04/12 14:06:57;;;;;;;1.90;1.40;;;;;;;8.66;38.97;99984.06;5092737;28;20108;-79
2021/04/12 14:09:36;;;;;;;3.70;1.58;;;;;;;8.79;39.39;99962.03;5101699;28;20048;-79
2021/04/12 14:12:16;;;;;;;4.82;1.83;;;;;;;8.92;40.62;99969.75;5092608;28;20458;-79
2021/04/12 14:14:53;;;;;;;3.17;1.20;;;;;;;9.06;38.63;99981.09;5091512;28;20052;-79
2021/04/12 14:20:34;;;;;;;3.08;1.80;;;;;;;9.21;39.30;99965.94;5088106;28;20396;-79
2021/04/12 14:23:05;;;;;;;3.05;1.58;;;;;;;9.00;39.37;99985.25;5091662;28;20048;-80
2021/04/12 14:25:37;;;;;;;4.28;2.17;;;;;;;8.92;39.49;99980.63;5097858;28;20499;-79
2021/04/12 14:28:09;;;;;;;3.70;2.10;;;;;;;9.10;37.88;99975.19;5101157;28;20055;-80
2021/04/12 14:30:44;;;;;;;4.38;1.60;;;;;;;8.88;37.86;99979.19;5102362;28;20123;-78
2021/04/12 14:33:16;;;;;;;3.10;1.83;;;;;;;8.84;38.98;99983.25;5104856;28;20436;-80
2021/04/12 14:36:21;;;;;;;3.47;1.73;;;;;;;8.77;39.52;99974.03;5093878;28;20048;-80
2021/04/12 14:39:04;;;;;;;4.50;1.50;;;;;;;8.44;39.83;99988.03;5097039;28;20454;-80
2021/04/12 14:41:39;;;;;;;4.30;1.73;;;;;;;8.49;39.31;99985.75;5096572;28;20085;-79
2021/04/12 14:44:09;;;;;;;2.97;1.83;;;;;;;8.23;39.67;99971.16;5094356;28;20040;-79
2021/04/12 14:46:47;;;;;;;3.47;1.83;;;;;;;8.46;41.54;99982.47;5097587;28;20048;-79
2021/04/12 14:49:15;;;;;;;2.35;1.55;;;;;;;8.21;40.02;99984.84;5096090;28;20047;-80
2021/04/12 14:51:54;;;;;;;2.60;1.45;;;;;;;8.17;39.99;99991.56;5095568;28;20052;-80
2021/04/12 14:54:37;;;;;;;2.65;1.23;;;;;;;8.07;40.79;99994.34;5101718;28;20093;-80
2021/04/12 14:57:10;;;;;;;1.95;1.20;;;;;;;8.08;38.66;99998.72;5098195;28;20044;-80
2021/04/12 14:59:43;;;;;;;3.22;1.40;;;;;;;8.09;39.07;99989.59;5104600;28;20047;-80
2021/04/12 15:02:26;;;;;;;1.33;0.95;;;;;;;8.66;37.14;99980.53;5094060;28;20052;-80
2021/04/12 15:04:59;;;;;;;3.00;1.10;;;;;;;9.01;37.09;99987.81;5090019;28;20048;-80
2021/04/12 15:07:38;;;;;;;6.93;1.40;;;;;;;9.34;37.46;99992.69;5089717;28;20058;-80
2021/04/12 15:10:08;;;;;;;2.83;1.50;;;;;;;9.23;35.84;99992.94;5090435;28;20039;-80
2021/04/12 15:12:40;;;;;;;3.20;1.40;;;;;;;9.58;35.91;99994.75;5089715;28;20040;-80
2021/04/12 15:15:10;;;;;;;3.03;1.10;;;;;;;9.81;34.67;99973.34;5089674;28;20135;-80
2021/04/12 15:17:39;;;;;;;;;;;;;;;9.47;35.72;99976.88;5077443;28;20481;-80
2021/04/12 15:20:10;;;;;;;1.30;1.10;;;;;;;9.04;35.43;99983.94;5102339;28;19965;-80
2021/04/12 15:22:42;;;;;;;1.38;1.23;;;;;;;8.78;38.21;99984.72;5096510;28;20055;-79
2021/04/12 15:25:17;;;;;;;3.20;1.27;;;;;;;8.46;38.78;99983.34;5107711;28;20060;-80
2021/04/12 15:27:43;;;;;;;1.13;0.95;;;;;;;8.35;36.12;99991.63;5097609;28;20048;-80
2021/04/12 15:30:16;;;;;;;1.52;1.02;;;;;;;8.32;38.47;99992.81;5093459;28;20065;-79
2021/04/12 15:35:47;;;;;;;4.53;1.20;;;;;;;8.10;38.51;99996.75;5092759;28;20058;-80
2021/04/12 15:38:19;;;;;;;1.42;0.82;;;;;;;8.26;38.47;99995.25;5106450;28;20061;-80
2021/04/12 15:40:50;;;;;;;3.40;1.25;;;;;;;8.30;38.32;99992.09;5098981;28;20047;-81
2021/04/12 15:43:22;;;;;;;3.08;1.20;;;;;;;8.27;39.32;99992.38;5098500;28;20086;-80
2021/04/12 15:46:00;;;;;;;2.75;1.40;;;;;;;8.25;38.94;99997.13;5103393;28;20047;-80
2021/04/12 15:48:51;;;;;;;3.47;1.23;;;;;;;8.05;40.55;99988.19;5101181;28;20502;-80
2021/04/12 15:51:24;;;;;;;4.55;1.58;;;;;;;7.95;40.33;99990.94;5090518;28;20040;-80
2021/04/12 15:54:06;;;;;;;1.98;1.00;;;;;;;7.98;39.11;100009.59;5093297;28;20044;-80
2021/04/12 15:56:39;;;;;;;1.38;1.10;;;;;;;7.84;38.97;100010.06;5092420;28;20135;-77
2021/04/12 15:59:11;;;;;;;1.50;1.05;;;;;;;7.54;40.71;100012.00;5093902;28;20100;-80
2021/04/12 16:01:49;;;;;;;1.38;1.10;;;;;;;7.49;41.45;100021.53;5096398;28;20165;-80
2021/04/12 16:04:26;;;;;;;1.92;1.20;;;;;;;7.05;43.66;100028.22;5099306;28;20075;-83
2021/04/12 16:07:03;;;;;;;3.42;1.50;;;;;;;7.12;44.51;100035.78;5096748;28;20048;-80
2021/04/12 16:09:31;;;;;;;3.08;1.48;;;;;;;7.03;45.50;100038.34;5095408;28;20048;-80
2021/04/12 16:11:59;;;;;;;1.30;1.00;;;;;;;7.12;43.18;100028.53;5105978;28;20408;-80
2021/04/12 16:14:32;;;;;;;2.33;1.10;;;;;;;7.24;43.69;100038.22;5099433;28;20101;-80
2021/04/12 16:17:09;;;;;;;1.67;1.20;;;;;;;7.04;45.60;100042.72;5098413;28;20154;-80
2021/04/12 16:19:40;;;;;;;1.38;1.17;;;;;;;6.69;45.22;100037.84;5093399;28;20044;-80
2021/04/12 16:22:15;;;;;;;2.22;1.20;;;;;;;6.85;44.26;100046.28;5101378;28;20048;-80
2021/04/12 16:24:45;;;;;;;1.92;1.30;;;;;;;6.91;45.67;100034.06;5093963;28;20078;-80
2021/04/12 16:27:23;;;;;;;1.10;1.00;;;;;;;7.10;44.79;100038.63;5095666;28;20044;-79
2021/04/12 16:29:58;;;;;;;3.92;1.05;;;;;;;7.04;43.89;100042.72;5095968;28;20113;-80
2021/04/12 16:35:20;;;;;;;1.98;1.40;;;;;;;7.15;45.15;100041.78;5103953;28;20118;-79
2021/04/12 16:38:04;;;;;;;1.40;1.17;;;;;;;7.36;44.55;100025.41;5097790;28;20048;-80
2021/04/12 16:41:13;;;;;;;3.58;1.65;;;;;;;7.34;44.50;100021.13;5097334;28;20048;-80
2021/04/12 16:43:45;;;;;;;1.90;1.33;;;;;;;7.27;46.09;100047.88;5022781;28;20441;-79
2021/04/12 16:46:28;;;;;;;3.42;1.27;;;;;;;7.30;45.68;100054.84;5020794;28;20111;-79
2021/04/12 16:49:03;;;;;;;2.33;1.33;;;;;;;7.23;46.39;100057.28;5074865;28;20051;-79
2021/04/12 16:51:33;;;;;;;2.13;1.88;;;;;;;7.23;45.30;100051.88;5101455;28;20044;-80
2021/04/12 16:54:07;;;;;;;3.55;1.52;;;;;;;7.12;45.17;100057.41;5093905;28;20098;-79
2021/04/12 16:56:39;;;;;;;2.63;1.40;;;;;;;7.14;45.25;100055.44;5093974;28;20393;-79
2021/04/12 16:59:09;;;;;;;4.22;1.80;;;;;;;7.11;45.51;100050.31;5098323;28;20117;-79
2021/04/12 17:01:42;;;;;;;1.30;1.20;;;;;;;7.06;45.00;100065.09;5105131;28;20051;-79
2021/04/12 17:04:22;;;;;;;2.20;1.42;;;;;;;6.98;45.85;100055.97;5107969;28;20059;-79
2021/04/12 17:06:59;;;;;;;3.90;1.40;;;;;;;6.92;45.66;100060.09;5103628;28;20048;-79
2021/04/12 17:09:33;;;;;;;2.97;1.60;;;;;;;6.71;45.39;100041.25;5098634;28;20051;-80
2021/04/12 17:12:03;;;;;;;1.75;1.65;;;;;;;6.72;45.29;100062.75;5104084;28;20488;-80